createdAt,value
2023-04-08T00:00:16.479Z,15.4
2023-04-08T00:10:17.832Z,15.6
2023-04-08T00:20:18.276Z,15.2
2023-04-08T00:30:17.268Z,15.3
2023-04-08T00:40:16.914Z,15.3
2023-04-08T00:50:17.164Z,15.3
2023-04-08T01:00:18.345Z,15.1
2023-04-08T01:10:18.052Z,15.1
2023-04-08T01:20:18.616Z,15.5
2023-04-08T01:30:17.538Z,15.1
2023-04-08T01:40:17.206Z,15.1
2023-04-08T01:50:16.530Z,15.2
2023-04-08T02:00:17.993Z,15.2
2023-04-08T02:10:16.966Z,15.2
2023-04-08T02:20:16.707Z,15.2
2023-04-08T02:30:16.934Z,15.2
2023-04-08T02:40:17.339Z,15.1
2023-04-08T02:50:16.264Z,15
2023-04-08T03:10:06.691Z,15
2023-04-08T03:20:06.872Z,15.1
2023-04-08T03:30:08.081Z,15.3
2023-04-08T03:40:07.751Z,15.1
2023-04-08T03:50:08.381Z,15.1
2023-04-08T04:00:07.470Z,14.9
2023-04-08T04:10:09.551Z,15.2
2023-04-08T04:20:10.516Z,15.2
2023-04-08T04:30:10.584Z,15
2023-04-08T04:40:10.941Z,15.3
2023-04-08T04:50:11.240Z,15
2023-04-08T05:00:12.149Z,15.1
2023-04-08T05:10:12.196Z,15.5
2023-04-08T05:20:12.236Z,14.9
2023-04-08T05:30:11.394Z,15.1
2023-04-08T05:40:11.072Z,15.2
2023-04-08T05:50:11.475Z,15.1
2023-04-08T06:00:12.087Z,15.1
2023-04-08T06:10:12.783Z,15.6
2023-04-08T06:20:12.700Z,15.3
2023-04-08T06:30:13.182Z,14.8
2023-04-08T06:40:14.878Z,15.4
2023-04-08T06:50:15.379Z,15.4
2023-04-08T07:00:14.918Z,15.4
2023-04-08T07:10:15.514Z,15.7
2023-04-08T07:20:16.279Z,15.7
2023-04-08T07:30:16.175Z,16.1
2023-04-08T07:40:18.059Z,16.2
2023-04-08T07:50:19.965Z,16.1
2023-04-08T08:00:19.317Z,16.1
2023-04-08T08:10:18.920Z,16.1
2023-04-08T08:20:20.289Z,16.2
2023-04-08T08:30:20.218Z,16.1
2023-04-08T08:40:21.564Z,15.7
2023-04-08T08:50:23.591Z,15.8
2023-04-08T09:10:13.666Z,16.4
2023-04-08T09:20:20.112Z,16.5
2023-04-08T09:30:26.777Z,16.8
2023-04-08T09:40:36.222Z,17.2
2023-04-08T09:50:44.751Z,16.7
2023-04-08T10:00:52.941Z,17.3
2023-04-08T10:10:57.812Z,17.1
2023-04-08T10:21:03.138Z,17.3
2023-04-08T10:31:05.763Z,17.4
2023-04-08T10:41:10.384Z,18
2023-04-08T10:51:13.570Z,17.7
2023-04-08T11:01:14.609Z,17.3
2023-04-08T11:11:18.383Z,17.4
2023-04-08T11:21:23.229Z,17.6
2023-04-08T11:31:25.042Z,17.4
2023-04-08T11:41:24.600Z,17.5
2023-04-08T11:51:26.135Z,17.6
2023-04-08T12:01:32.192Z,17.4
2023-04-08T12:11:34.522Z,17.1
2023-04-08T12:21:35.633Z,16.8
2023-04-08T12:31:38.278Z,16.9
2023-04-08T12:41:40.302Z,17.4
2023-04-08T12:51:41.134Z,16.8
2023-04-08T13:01:42.902Z,16.4
2023-04-08T13:11:44.283Z,16.5
2023-04-08T13:21:46.898Z,16.1
2023-04-08T13:31:48.795Z,16.3
2023-04-08T13:41:48.595Z,17.1
2023-04-08T13:51:52.064Z,16.9
2023-04-08T14:01:54.782Z,16.9
2023-04-08T14:12:00.495Z,17.1
2023-04-08T14:22:06.202Z,16.9
2023-04-08T14:32:07.576Z,17.1
2023-04-08T14:42:07.166Z,16.6
2023-04-08T14:52:08.670Z,16.3
2023-04-08T15:10:05.011Z,16.3
2023-04-08T15:20:06.173Z,16.5
2023-04-08T15:30:07.004Z,16.4
2023-04-08T15:40:07.871Z,16.5
2023-04-08T15:50:08.760Z,16.6
2023-04-08T16:00:08.960Z,16.1
2023-04-08T16:10:10.396Z,16.1
2023-04-08T16:20:12.290Z,16.1
2023-04-08T16:30:14.145Z,16.3
2023-04-08T16:40:16.123Z,16.3
2023-04-08T16:50:17.426Z,16.3
2023-04-08T17:00:20.561Z,15.9
2023-04-08T17:10:19.084Z,15.9
2023-04-08T17:20:19.095Z,16.2
2023-04-08T17:30:19.395Z,15.9
2023-04-08T17:40:18.693Z,15.9
2023-04-08T17:50:18.784Z,15.9
2023-04-08T18:00:19.362Z,16.1
2023-04-08T18:10:19.254Z,15.8
2023-04-08T18:20:18.843Z,15.9
2023-04-08T18:30:18.300Z,15.9
2023-04-08T18:40:19.013Z,16.1
2023-04-08T18:50:19.086Z,15.8
2023-04-08T19:00:19.021Z,15.8
2023-04-08T19:10:19.070Z,16.1
2023-04-08T19:20:18.495Z,15.9
2023-04-08T19:30:18.030Z,15.9
2023-04-08T19:40:18.635Z,15.8
2023-04-08T19:50:18.406Z,15.9
2023-04-08T20:00:18.489Z,15.8
2023-04-08T20:10:18.901Z,15.7
2023-04-08T20:20:19.666Z,15.9
2023-04-08T20:30:20.187Z,15.6
2023-04-08T20:40:19.943Z,15.7
2023-04-08T20:50:20.622Z,15.9
2023-04-08T21:10:07.702Z,15.8
2023-04-08T21:20:07.467Z,15.7
2023-04-08T21:30:07.371Z,15.7
2023-04-08T21:40:06.381Z,15.7
2023-04-08T21:50:07.862Z,15.8
2023-04-08T22:00:08.154Z,15.9
2023-04-08T22:10:07.751Z,15.6
2023-04-08T22:20:09.772Z,15.6
2023-04-08T22:30:10.212Z,15.6
2023-04-08T22:40:11.680Z,15.4
2023-04-08T22:50:13.914Z,15.6
2023-04-08T23:00:13.749Z,15.4
2023-04-08T23:10:13.530Z,15.4
2023-04-08T23:20:13.194Z,15.4
2023-04-08T23:30:13.169Z,15.4
2023-04-08T23:40:12.826Z,15.4
2023-04-08T23:50:13.777Z,15.4
